Accueil
METAR-TAF:

METAR-TAF

Aéroports :

Niederstetten, Allemagne

Base aérienne

latitude: 49-24N, longitude: 009-58E, altitude: 468 m

Observation

Le bulletin a été fait il y a 18 minutes, à 00:20 UTC
Vent 9 kt de nord-est
Température -4°C
Humidité 74%
Pression 1018 hPa
Visibilité 10 km ou plus

METAR: ETHN 220020Z 05009KT 9999 M04/M08 Q1018 BLU+

Heure: 01:38 (00:38 UTC)

Prévision

Le bulletin a été fait il y a 9 heures et 6 minutes, à 15:32 UTC
Prévision valable du 21 à 15 UTC au 21 à 24 UTC
Vent 10 kt de nord/nord-est
Visibilité: 1600 m
Quelques nuages à une hauteur de 2000 ft

TAF: ETHN 211532Z 2115/2124 02010KT 9999 NSW FEW020 CANCEL 1600

Observations et prévisions météorologiques de plus de 4000 aéroports (messages METAR et TAF).

Les stations disponibles sont représentées par des disques jaunes et rouges sur la carte.

Passer la souris dessus pour voir le nom de la station.

Cliquer dessus pour voir les observations et prévisions météorologiques.

Pour changer de carte: cliquez sur les boutons verts avec une croix noire pour zoomer, sur le bouton vert avec un tiret pour effectuer un zoom arrière, ou sur les flèches vertes pour les cartes adjacentes.


METAR-TAF: